FYML

Mariental

Mariental, Namibia
METAR FYML 182000Z AUTO 15005KT //// // ////// 32/M02 Q1015
Observed Flight Rules
Dec-18 @ 20:00 UTC (22 minutes ago)
Wind
150° at 5 knots
Temperatures Readings
Current 32°C / 90°F
Dewpoint -2°C / 28°F
Humidity 11%
Altimeter 29.97" Hg
Pressure 1015 hPa
Elevation 1113
METAR FYML 182000Z AUTO 15005KT //// // ////// 32/M02 Q1015
Observed Flight Rules
Dec-18 @ 20:00 UTC
(22 minutes ago)
Wind
150° at 5 knots
Temperature Dewpoint
32°C / 90°F -2°C / 28°F
Humidity Altimeter Pressure
11% 29.97" Hg 1015 hPa